sensor_id;sensor_type;location;lat;lon;timestamp;P1;durP1;ratioP1;P2;durP2;ratioP2
67278;SDS011;54193;53.746;10.058;2022-12-07T00:03:59;40.78;;;13.90;;
67278;SDS011;54193;53.746;10.058;2022-12-07T00:06:51;31.92;;;10.65;;
67278;SDS011;54193;53.746;10.058;2022-12-07T00:09:38;29.37;;;10.03;;
67278;SDS011;54193;53.746;10.058;2022-12-07T00:12:24;41.97;;;13.30;;
67278;SDS011;54193;53.746;10.058;2022-12-07T00:15:09;42.00;;;14.70;;
67278;SDS011;54193;53.746;10.058;2022-12-07T00:17:55;39.05;;;13.20;;
67278;SDS011;54193;53.746;10.058;2022-12-07T00:20:41;40.42;;;12.75;;
67278;SDS011;54193;53.746;10.058;2022-12-07T00:23:26;42.53;;;13.83;;
67278;SDS011;54193;53.746;10.058;2022-12-07T00:26:16;39.55;;;12.00;;
67278;SDS011;54193;53.746;10.058;2022-12-07T00:29:11;38.78;;;11.45;;
67278;SDS011;54193;53.746;10.058;2022-12-07T00:32:00;44.13;;;14.57;;
67278;SDS011;54193;53.746;10.058;2022-12-07T00:34:46;42.40;;;13.70;;
67278;SDS011;54193;53.746;10.058;2022-12-07T00:37:32;42.17;;;14.23;;
67278;SDS011;54193;53.746;10.058;2022-12-07T00:40:17;37.15;;;12.07;;
67278;SDS011;54193;53.746;10.058;2022-12-07T00:43:03;28.25;;;10.27;;
67278;SDS011;54193;53.746;10.058;2022-12-07T00:45:49;33.13;;;11.32;;
67278;SDS011;54193;53.746;10.058;2022-12-07T00:48:34;44.88;;;14.00;;
67278;SDS011;54193;53.746;10.058;2022-12-07T00:51:21;53.37;;;16.80;;
67278;SDS011;54193;53.746;10.058;2022-12-07T00:54:08;42.88;;;14.88;;
67278;SDS011;54193;53.746;10.058;2022-12-07T00:56:54;38.80;;;13.35;;
67278;SDS011;54193;53.746;10.058;2022-12-07T00:59:40;48.42;;;15.57;;
67278;SDS011;54193;53.746;10.058;2022-12-07T01:02:25;39.85;;;12.40;;
67278;SDS011;54193;53.746;10.058;2022-12-07T01:05:11;31.73;;;11.00;;
67278;SDS011;54193;53.746;10.058;2022-12-07T01:07:56;40.85;;;14.07;;
67278;SDS011;54193;53.746;10.058;2022-12-07T01:10:42;28.88;;;10.88;;
67278;SDS011;54193;53.746;10.058;2022-12-07T01:13:28;31.90;;;10.32;;
67278;SDS011;54193;53.746;10.058;2022-12-07T01:16:15;41.85;;;13.40;;
67278;SDS011;54193;53.746;10.058;2022-12-07T01:19:01;46.60;;;14.50;;
67278;SDS011;54193;53.746;10.058;2022-12-07T01:21:49;40.15;;;13.65;;
67278;SDS011;54193;53.746;10.058;2022-12-07T01:24:35;41.90;;;13.18;;
67278;SDS011;54193;53.746;10.058;2022-12-07T01:27:21;42.65;;;13.02;;
67278;SDS011;54193;53.746;10.058;2022-12-07T01:30:06;36.45;;;11.60;;
67278;SDS011;54193;53.746;10.058;2022-12-07T01:32:53;37.37;;;12.27;;
67278;SDS011;54193;53.746;10.058;2022-12-07T01:35:38;39.78;;;13.07;;
67278;SDS011;54193;53.746;10.058;2022-12-07T01:38:24;36.58;;;11.45;;
67278;SDS011;54193;53.746;10.058;2022-12-07T01:41:10;37.72;;;12.50;;
67278;SDS011;54193;53.746;10.058;2022-12-07T01:47:06;36.67;;;10.60;;
67278;SDS011;54193;53.746;10.058;2022-12-07T01:49:52;35.10;;;11.05;;
67278;SDS011;54193;53.746;10.058;2022-12-07T01:52:37;31.80;;;10.63;;
67278;SDS011;54193;53.746;10.058;2022-12-07T01:55:24;34.65;;;11.15;;
67278;SDS011;54193;53.746;10.058;2022-12-07T01:58:11;36.03;;;10.55;;
67278;SDS011;54193;53.746;10.058;2022-12-07T02:00:58;31.23;;;10.00;;
67278;SDS011;54193;53.746;10.058;2022-12-07T02:03:44;33.70;;;10.52;;
67278;SDS011;54193;53.746;10.058;2022-12-07T02:06:30;34.28;;;11.23;;
67278;SDS011;54193;53.746;10.058;2022-12-07T02:09:16;35.00;;;10.90;;
67278;SDS011;54193;53.746;10.058;2022-12-07T02:12:02;32.25;;;9.88;;
67278;SDS011;54193;53.746;10.058;2022-12-07T02:14:49;27.73;;;9.63;;
67278;SDS011;54193;53.746;10.058;2022-12-07T02:18:12;32.03;;;9.57;;
67278;SDS011;54193;53.746;10.058;2022-12-07T02:21:15;31.38;;;9.52;;
67278;SDS011;54193;53.746;10.058;2022-12-07T02:24:19;18.10;;;5.75;;
67278;SDS011;54193;53.746;10.058;2022-12-07T02:27:22;27.23;;;8.07;;
67278;SDS011;54193;53.746;10.058;2022-12-07T02:30:28;29.10;;;8.03;;
67278;SDS011;54193;53.746;10.058;2022-12-07T02:33:24;21.73;;;6.88;;
67278;SDS011;54193;53.746;10.058;2022-12-07T02:36:18;10.88;;;4.43;;
67278;SDS011;54193;53.746;10.058;2022-12-07T02:39:12;14.88;;;5.28;;
67278;SDS011;54193;53.746;10.058;2022-12-07T02:42:07;18.15;;;5.70;;
67278;SDS011;54193;53.746;10.058;2022-12-07T02:44:59;12.10;;;3.67;;
67278;SDS011;54193;53.746;10.058;2022-12-07T02:47:47;14.32;;;4.75;;
67278;SDS011;54193;53.746;10.058;2022-12-07T02:50:36;14.93;;;4.45;;
67278;SDS011;54193;53.746;10.058;2022-12-07T02:53:28;11.10;;;3.45;;
67278;SDS011;54193;53.746;10.058;2022-12-07T02:59:27;12.43;;;3.93;;
67278;SDS011;54193;53.746;10.058;2022-12-07T03:11:36;10.30;;;2.88;;
67278;SDS011;54193;53.746;10.058;2022-12-07T03:14:32;9.80;;;2.27;;
67278;SDS011;54193;53.746;10.058;2022-12-07T03:17:24;10.57;;;2.40;;
67278;SDS011;54193;53.746;10.058;2022-12-07T03:20:14;9.35;;;2.65;;
67278;SDS011;54193;53.746;10.058;2022-12-07T03:23:03;10.18;;;3.17;;
67278;SDS011;54193;53.746;10.058;2022-12-07T03:25:52;9.63;;;2.40;;
67278;SDS011;54193;53.746;10.058;2022-12-07T03:28:45;6.63;;;2.43;;
67278;SDS011;54193;53.746;10.058;2022-12-07T03:31:41;9.07;;;2.35;;
67278;SDS011;54193;53.746;10.058;2022-12-07T03:34:44;11.60;;;2.50;;
67278;SDS011;54193;53.746;10.058;2022-12-07T03:37:41;8.70;;;2.35;;
67278;SDS011;54193;53.746;10.058;2022-12-07T03:43:36;8.10;;;2.20;;
67278;SDS011;54193;53.746;10.058;2022-12-07T03:49:19;6.47;;;1.75;;
67278;SDS011;54193;53.746;10.058;2022-12-07T03:52:32;5.50;;;2.00;;
67278;SDS011;54193;53.746;10.058;2022-12-07T03:55:32;7.72;;;2.28;;
67278;SDS011;54193;53.746;10.058;2022-12-07T03:58:24;5.03;;;1.60;;
67278;SDS011;54193;53.746;10.058;2022-12-07T04:01:10;6.78;;;1.35;;
67278;SDS011;54193;53.746;10.058;2022-12-07T04:03:56;5.85;;;1.63;;
67278;SDS011;54193;53.746;10.058;2022-12-07T04:06:42;8.18;;;2.33;;
67278;SDS011;54193;53.746;10.058;2022-12-07T04:09:28;8.32;;;2.55;;
67278;SDS011;54193;53.746;10.058;2022-12-07T04:12:13;8.50;;;2.50;;
67278;SDS011;54193;53.746;10.058;2022-12-07T04:14:59;10.00;;;2.28;;
67278;SDS011;54193;53.746;10.058;2022-12-07T04:17:45;7.88;;;2.40;;
67278;SDS011;54193;53.746;10.058;2022-12-07T04:20:30;7.97;;;2.80;;
67278;SDS011;54193;53.746;10.058;2022-12-07T04:23:16;12.60;;;3.40;;
67278;SDS011;54193;53.746;10.058;2022-12-07T04:26:01;9.97;;;3.40;;
67278;SDS011;54193;53.746;10.058;2022-12-07T04:28:47;10.30;;;3.40;;
67278;SDS011;54193;53.746;10.058;2022-12-07T04:31:33;14.25;;;4.20;;
67278;SDS011;54193;53.746;10.058;2022-12-07T04:34:19;9.45;;;3.00;;
67278;SDS011;54193;53.746;10.058;2022-12-07T04:37:05;13.60;;;4.15;;
67278;SDS011;54193;53.746;10.058;2022-12-07T04:39:51;10.27;;;3.40;;
67278;SDS011;54193;53.746;10.058;2022-12-07T04:42:37;11.15;;;3.30;;
67278;SDS011;54193;53.746;10.058;2022-12-07T04:45:23;10.55;;;3.60;;
67278;SDS011;54193;53.746;10.058;2022-12-07T04:48:08;12.15;;;3.38;;
67278;SDS011;54193;53.746;10.058;2022-12-07T04:50:54;13.95;;;5.05;;
67278;SDS011;54193;53.746;10.058;2022-12-07T04:53:40;16.33;;;5.30;;
67278;SDS011;54193;53.746;10.058;2022-12-07T04:56:25;13.35;;;4.57;;
67278;SDS011;54193;53.746;10.058;2022-12-07T04:59:12;13.13;;;4.50;;
67278;SDS011;54193;53.746;10.058;2022-12-07T05:01:59;18.17;;;5.18;;
67278;SDS011;54193;53.746;10.058;2022-12-07T05:04:45;15.55;;;4.60;;
67278;SDS011;54193;53.746;10.058;2022-12-07T05:07:31;16.07;;;4.40;;
67278;SDS011;54193;53.746;10.058;2022-12-07T05:10:16;14.85;;;4.78;;
67278;SDS011;54193;53.746;10.058;2022-12-07T05:13:02;16.45;;;4.32;;
67278;SDS011;54193;53.746;10.058;2022-12-07T05:15:48;14.23;;;3.65;;
67278;SDS011;54193;53.746;10.058;2022-12-07T05:18:33;12.25;;;4.05;;
67278;SDS011;54193;53.746;10.058;2022-12-07T05:21:19;12.37;;;3.70;;
67278;SDS011;54193;53.746;10.058;2022-12-07T05:24:05;10.55;;;3.35;;
67278;SDS011;54193;53.746;10.058;2022-12-07T05:26:52;13.02;;;4.07;;
67278;SDS011;54193;53.746;10.058;2022-12-07T05:29:38;13.95;;;4.30;;
67278;SDS011;54193;53.746;10.058;2022-12-07T05:32:23;11.57;;;3.70;;
67278;SDS011;54193;53.746;10.058;2022-12-07T05:35:09;15.77;;;4.23;;
67278;SDS011;54193;53.746;10.058;2022-12-07T05:37:55;14.90;;;5.20;;
67278;SDS011;54193;53.746;10.058;2022-12-07T05:40:42;15.30;;;4.70;;
67278;SDS011;54193;53.746;10.058;2022-12-07T05:43:28;17.23;;;4.75;;
67278;SDS011;54193;53.746;10.058;2022-12-07T05:46:14;11.25;;;4.38;;
67278;SDS011;54193;53.746;10.058;2022-12-07T05:48:59;16.17;;;4.90;;
67278;SDS011;54193;53.746;10.058;2022-12-07T05:51:45;15.48;;;4.20;;
67278;SDS011;54193;53.746;10.058;2022-12-07T05:54:31;14.50;;;4.70;;
67278;SDS011;54193;53.746;10.058;2022-12-07T05:57:17;18.45;;;4.72;;
67278;SDS011;54193;53.746;10.058;2022-12-07T06:00:03;18.88;;;5.45;;
67278;SDS011;54193;53.746;10.058;2022-12-07T06:02:50;17.07;;;4.77;;
67278;SDS011;54193;53.746;10.058;2022-12-07T06:05:35;16.80;;;5.20;;
67278;SDS011;54193;53.746;10.058;2022-12-07T06:08:21;19.75;;;5.15;;
67278;SDS011;54193;53.746;10.058;2022-12-07T06:11:07;15.20;;;5.10;;
67278;SDS011;54193;53.746;10.058;2022-12-07T06:14:11;17.80;;;5.90;;
67278;SDS011;54193;53.746;10.058;2022-12-07T06:16:57;16.30;;;4.87;;
67278;SDS011;54193;53.746;10.058;2022-12-07T06:19:44;16.95;;;5.97;;
67278;SDS011;54193;53.746;10.058;2022-12-07T06:22:29;16.85;;;5.55;;
67278;SDS011;54193;53.746;10.058;2022-12-07T06:25:15;17.60;;;5.93;;
67278;SDS011;54193;53.746;10.058;2022-12-07T06:28:00;16.02;;;5.97;;
67278;SDS011;54193;53.746;10.058;2022-12-07T06:30:46;17.17;;;5.77;;
67278;SDS011;54193;53.746;10.058;2022-12-07T06:33:32;19.23;;;5.90;;
67278;SDS011;54193;53.746;10.058;2022-12-07T06:36:17;14.65;;;5.03;;
67278;SDS011;54193;53.746;10.058;2022-12-07T06:39:04;17.27;;;6.55;;
67278;SDS011;54193;53.746;10.058;2022-12-07T06:41:50;19.50;;;6.60;;
67278;SDS011;54193;53.746;10.058;2022-12-07T06:44:39;18.40;;;6.83;;
67278;SDS011;54193;53.746;10.058;2022-12-07T06:47:25;18.20;;;6.43;;
67278;SDS011;54193;53.746;10.058;2022-12-07T06:50:10;16.60;;;5.85;;
67278;SDS011;54193;53.746;10.058;2022-12-07T06:52:57;16.70;;;6.20;;
67278;SDS011;54193;53.746;10.058;2022-12-07T06:55:42;19.98;;;6.50;;
67278;SDS011;54193;53.746;10.058;2022-12-07T06:58:29;17.37;;;6.23;;
67278;SDS011;54193;53.746;10.058;2022-12-07T07:01:16;15.85;;;5.90;;
67278;SDS011;54193;53.746;10.058;2022-12-07T07:04:03;15.40;;;5.97;;
67278;SDS011;54193;53.746;10.058;2022-12-07T07:06:49;15.77;;;5.95;;
67278;SDS011;54193;53.746;10.058;2022-12-07T07:09:34;21.23;;;6.90;;
67278;SDS011;54193;53.746;10.058;2022-12-07T07:12:20;16.47;;;5.80;;
67278;SDS011;54193;53.746;10.058;2022-12-07T07:15:06;15.23;;;5.72;;
67278;SDS011;54193;53.746;10.058;2022-12-07T07:17:52;12.95;;;4.60;;
67278;SDS011;54193;53.746;10.058;2022-12-07T07:20:38;16.35;;;5.60;;
67278;SDS011;54193;53.746;10.058;2022-12-07T07:23:23;13.05;;;4.93;;
67278;SDS011;54193;53.746;10.058;2022-12-07T07:26:09;12.57;;;4.37;;
67278;SDS011;54193;53.746;10.058;2022-12-07T07:28:55;14.27;;;4.43;;
67278;SDS011;54193;53.746;10.058;2022-12-07T07:31:40;11.40;;;4.03;;
67278;SDS011;54193;53.746;10.058;2022-12-07T07:34:26;12.65;;;4.57;;
67278;SDS011;54193;53.746;10.058;2022-12-07T07:37:12;12.93;;;4.50;;
67278;SDS011;54193;53.746;10.058;2022-12-07T07:39:57;13.07;;;3.93;;
67278;SDS011;54193;53.746;10.058;2022-12-07T07:42:43;14.05;;;4.50;;
67278;SDS011;54193;53.746;10.058;2022-12-07T07:45:29;14.65;;;4.70;;
67278;SDS011;54193;53.746;10.058;2022-12-07T07:48:14;10.15;;;3.58;;
67278;SDS011;54193;53.746;10.058;2022-12-07T07:51:00;9.20;;;3.50;;
67278;SDS011;54193;53.746;10.058;2022-12-07T07:53:49;12.50;;;3.80;;
67278;SDS011;54193;53.746;10.058;2022-12-07T07:56:35;10.30;;;3.67;;
67278;SDS011;54193;53.746;10.058;2022-12-07T07:59:21;8.10;;;2.90;;
67278;SDS011;54193;53.746;10.058;2022-12-07T08:02:08;9.70;;;3.45;;
67278;SDS011;54193;53.746;10.058;2022-12-07T08:04:58;8.70;;;2.97;;
67278;SDS011;54193;53.746;10.058;2022-12-07T08:07:44;8.63;;;1.77;;
67278;SDS011;54193;53.746;10.058;2022-12-07T08:10:29;11.27;;;3.42;;
67278;SDS011;54193;53.746;10.058;2022-12-07T08:13:17;11.15;;;2.22;;
67278;SDS011;54193;53.746;10.058;2022-12-07T08:16:03;9.43;;;2.85;;
67278;SDS011;54193;53.746;10.058;2022-12-07T08:18:51;13.07;;;2.90;;
67278;SDS011;54193;53.746;10.058;2022-12-07T08:21:37;10.20;;;3.00;;
67278;SDS011;54193;53.746;10.058;2022-12-07T08:24:22;7.95;;;2.40;;
67278;SDS011;54193;53.746;10.058;2022-12-07T08:27:08;9.80;;;3.10;;
67278;SDS011;54193;53.746;10.058;2022-12-07T08:29:54;12.00;;;3.13;;
67278;SDS011;54193;53.746;10.058;2022-12-07T08:32:39;9.02;;;2.80;;
67278;SDS011;54193;53.746;10.058;2022-12-07T08:35:25;11.97;;;2.83;;
67278;SDS011;54193;53.746;10.058;2022-12-07T08:38:11;8.52;;;2.70;;
67278;SDS011;54193;53.746;10.058;2022-12-07T08:40:57;9.95;;;2.70;;
67278;SDS011;54193;53.746;10.058;2022-12-07T08:43:44;8.30;;;3.00;;
67278;SDS011;54193;53.746;10.058;2022-12-07T08:46:46;9.48;;;2.72;;
67278;SDS011;54193;53.746;10.058;2022-12-07T08:49:39;7.97;;;2.57;;
67278;SDS011;54193;53.746;10.058;2022-12-07T08:52:31;11.13;;;2.67;;
67278;SDS011;54193;53.746;10.058;2022-12-07T08:55:18;8.73;;;2.47;;
67278;SDS011;54193;53.746;10.058;2022-12-07T08:58:04;8.52;;;2.50;;
67278;SDS011;54193;53.746;10.058;2022-12-07T09:00:50;8.32;;;2.60;;
67278;SDS011;54193;53.746;10.058;2022-12-07T09:03:35;11.47;;;2.70;;
67278;SDS011;54193;53.746;10.058;2022-12-07T09:06:21;9.02;;;2.20;;
67278;SDS011;54193;53.746;10.058;2022-12-07T09:09:07;7.25;;;2.15;;
67278;SDS011;54193;53.746;10.058;2022-12-07T09:11:53;8.63;;;2.58;;
67278;SDS011;54193;53.746;10.058;2022-12-07T09:14:39;6.63;;;2.30;;
67278;SDS011;54193;53.746;10.058;2022-12-07T09:17:25;9.50;;;2.30;;
67278;SDS011;54193;53.746;10.058;2022-12-07T09:20:11;8.57;;;2.10;;
67278;SDS011;54193;53.746;10.058;2022-12-07T09:22:57;8.10;;;2.30;;
67278;SDS011;54193;53.746;10.058;2022-12-07T09:25:43;8.88;;;2.10;;
67278;SDS011;54193;53.746;10.058;2022-12-07T09:28:29;10.90;;;2.20;;
67278;SDS011;54193;53.746;10.058;2022-12-07T09:31:15;8.93;;;2.03;;
67278;SDS011;54193;53.746;10.058;2022-12-07T09:34:01;7.22;;;2.08;;
67278;SDS011;54193;53.746;10.058;2022-12-07T09:36:47;7.28;;;1.90;;
67278;SDS011;54193;53.746;10.058;2022-12-07T09:39:32;9.45;;;2.08;;
67278;SDS011;54193;53.746;10.058;2022-12-07T09:42:28;8.25;;;2.28;;
67278;SDS011;54193;53.746;10.058;2022-12-07T09:48:13;8.68;;;1.90;;
67278;SDS011;54193;53.746;10.058;2022-12-07T09:51:22;6.03;;;1.77;;
67278;SDS011;54193;53.746;10.058;2022-12-07T09:54:11;6.10;;;2.10;;
67278;SDS011;54193;53.746;10.058;2022-12-07T09:56:59;11.98;;;2.20;;
67278;SDS011;54193;53.746;10.058;2022-12-07T09:59:44;6.23;;;1.90;;
67278;SDS011;54193;53.746;10.058;2022-12-07T10:02:37;8.23;;;1.85;;
67278;SDS011;54193;53.746;10.058;2022-12-07T10:05:47;8.45;;;1.67;;
67278;SDS011;54193;53.746;10.058;2022-12-07T10:08:34;8.40;;;2.78;;
67278;SDS011;54193;53.746;10.058;2022-12-07T10:11:20;4.38;;;1.42;;
67278;SDS011;54193;53.746;10.058;2022-12-07T10:14:12;6.03;;;1.70;;
67278;SDS011;54193;53.746;10.058;2022-12-07T10:16:59;8.45;;;1.83;;
67278;SDS011;54193;53.746;10.058;2022-12-07T10:19:44;7.95;;;1.80;;
67278;SDS011;54193;53.746;10.058;2022-12-07T10:22:30;8.13;;;2.10;;
67278;SDS011;54193;53.746;10.058;2022-12-07T10:25:20;6.43;;;1.92;;
67278;SDS011;54193;53.746;10.058;2022-12-07T10:31:34;4.63;;;1.48;;
67278;SDS011;54193;53.746;10.058;2022-12-07T10:34:02;5.90;;;1.63;;
67278;SDS011;54193;53.746;10.058;2022-12-07T10:36:47;9.60;;;1.55;;
67278;SDS011;54193;53.746;10.058;2022-12-07T10:39:40;6.93;;;2.05;;
67278;SDS011;54193;53.746;10.058;2022-12-07T10:42:29;7.03;;;1.50;;
67278;SDS011;54193;53.746;10.058;2022-12-07T10:45:16;8.88;;;1.55;;
67278;SDS011;54193;53.746;10.058;2022-12-07T10:51:12;5.18;;;1.52;;
67278;SDS011;54193;53.746;10.058;2022-12-07T10:54:08;4.82;;;1.40;;
67278;SDS011;54193;53.746;10.058;2022-12-07T10:57:11;5.10;;;1.60;;
67278;SDS011;54193;53.746;10.058;2022-12-07T11:00:21;6.90;;;1.70;;
67278;SDS011;54193;53.746;10.058;2022-12-07T11:06:05;9.70;;;2.00;;
67278;SDS011;54193;53.746;10.058;2022-12-07T11:15:21;7.47;;;1.40;;
67278;SDS011;54193;53.746;10.058;2022-12-07T11:21:26;8.77;;;1.50;;
67278;SDS011;54193;53.746;10.058;2022-12-07T11:24:22;7.72;;;1.90;;
67278;SDS011;54193;53.746;10.058;2022-12-07T11:30:17;7.65;;;1.60;;
67278;SDS011;54193;53.746;10.058;2022-12-07T11:38:55;5.57;;;1.02;;
67278;SDS011;54193;53.746;10.058;2022-12-07T11:41:45;9.53;;;1.53;;
67278;SDS011;54193;53.746;10.058;2022-12-07T11:44:40;5.35;;;1.10;;
67278;SDS011;54193;53.746;10.058;2022-12-07T11:47:47;6.68;;;1.45;;
67278;SDS011;54193;53.746;10.058;2022-12-07T11:50:42;6.25;;;1.13;;
67278;SDS011;54193;53.746;10.058;2022-12-07T11:56:23;4.27;;;1.00;;
67278;SDS011;54193;53.746;10.058;2022-12-07T11:59:17;3.42;;;1.13;;
67278;SDS011;54193;53.746;10.058;2022-12-07T12:02:16;6.75;;;1.05;;
67278;SDS011;54193;53.746;10.058;2022-12-07T12:05:19;6.15;;;1.00;;
67278;SDS011;54193;53.746;10.058;2022-12-07T12:08:14;3.63;;;0.90;;
67278;SDS011;54193;53.746;10.058;2022-12-07T12:20:50;4.22;;;1.00;;
67278;SDS011;54193;53.746;10.058;2022-12-07T12:23:45;3.28;;;0.77;;
67278;SDS011;54193;53.746;10.058;2022-12-07T12:26:36;5.77;;;0.97;;
67278;SDS011;54193;53.746;10.058;2022-12-07T12:29:27;4.10;;;0.70;;
67278;SDS011;54193;53.746;10.058;2022-12-07T12:32:21;4.35;;;0.70;;
67278;SDS011;54193;53.746;10.058;2022-12-07T12:50:38;2.78;;;0.50;;
67278;SDS011;54193;53.746;10.058;2022-12-07T12:53:24;3.78;;;0.50;;
67278;SDS011;54193;53.746;10.058;2022-12-07T12:56:20;3.97;;;0.80;;
67278;SDS011;54193;53.746;10.058;2022-12-07T12:59:58;4.00;;;0.60;;
67278;SDS011;54193;53.746;10.058;2022-12-07T13:02:27;2.65;;;0.60;;
67278;SDS011;54193;53.746;10.058;2022-12-07T13:05:33;3.85;;;0.50;;
67278;SDS011;54193;53.746;10.058;2022-12-07T13:08:20;5.13;;;1.17;;
67278;SDS011;54193;53.746;10.058;2022-12-07T13:11:17;2.90;;;0.60;;
67278;SDS011;54193;53.746;10.058;2022-12-07T13:23:51;2.58;;;0.40;;
67278;SDS011;54193;53.746;10.058;2022-12-07T13:26:43;2.47;;;0.50;;
67278;SDS011;54193;53.746;10.058;2022-12-07T13:29:29;2.08;;;0.40;;
67278;SDS011;54193;53.746;10.058;2022-12-07T13:32:27;2.70;;;0.40;;
67278;SDS011;54193;53.746;10.058;2022-12-07T13:35:27;3.58;;;0.50;;
67278;SDS011;54193;53.746;10.058;2022-12-07T13:38:32;4.60;;;0.50;;
67278;SDS011;54193;53.746;10.058;2022-12-07T13:41:19;3.27;;;0.60;;
67278;SDS011;54193;53.746;10.058;2022-12-07T13:44:14;2.22;;;0.40;;
67278;SDS011;54193;53.746;10.058;2022-12-07T13:49:53;1.83;;;0.40;;
67278;SDS011;54193;53.746;10.058;2022-12-07T13:52:44;3.08;;;0.57;;
67278;SDS011;54193;53.746;10.058;2022-12-07T13:55:30;8.93;;;0.53;;
67278;SDS011;54193;53.746;10.058;2022-12-07T13:58:16;2.28;;;0.50;;
67278;SDS011;54193;53.746;10.058;2022-12-07T14:01:02;3.60;;;0.55;;
67278;SDS011;54193;53.746;10.058;2022-12-07T14:03:48;2.53;;;0.50;;
67278;SDS011;54193;53.746;10.058;2022-12-07T14:06:33;4.35;;;0.50;;
67278;SDS011;54193;53.746;10.058;2022-12-07T14:09:21;6.57;;;1.10;;
67278;SDS011;54193;53.746;10.058;2022-12-07T14:12:08;3.60;;;0.80;;
67278;SDS011;54193;53.746;10.058;2022-12-07T14:14:54;4.15;;;1.10;;
67278;SDS011;54193;53.746;10.058;2022-12-07T14:17:49;8.57;;;1.20;;
67278;SDS011;54193;53.746;10.058;2022-12-07T14:20:38;7.00;;;1.38;;
67278;SDS011;54193;53.746;10.058;2022-12-07T14:23:25;5.67;;;1.43;;
67278;SDS011;54193;53.746;10.058;2022-12-07T14:26:13;6.53;;;1.58;;
67278;SDS011;54193;53.746;10.058;2022-12-07T14:32:18;7.00;;;1.20;;
67278;SDS011;54193;53.746;10.058;2022-12-07T14:35:12;3.67;;;1.10;;
67278;SDS011;54193;53.746;10.058;2022-12-07T14:37:59;3.13;;;0.73;;
67278;SDS011;54193;53.746;10.058;2022-12-07T14:40:44;5.00;;;1.60;;
67278;SDS011;54193;53.746;10.058;2022-12-07T14:43:30;3.20;;;1.00;;
67278;SDS011;54193;53.746;10.058;2022-12-07T14:46:16;4.15;;;0.98;;
67278;SDS011;54193;53.746;10.058;2022-12-07T14:49:01;6.50;;;1.77;;
67278;SDS011;54193;53.746;10.058;2022-12-07T14:51:47;6.40;;;2.20;;
67278;SDS011;54193;53.746;10.058;2022-12-07T14:54:33;4.80;;;1.65;;
67278;SDS011;54193;53.746;10.058;2022-12-07T14:57:18;7.53;;;1.85;;
67278;SDS011;54193;53.746;10.058;2022-12-07T15:00:04;7.82;;;2.03;;
67278;SDS011;54193;53.746;10.058;2022-12-07T15:02:51;11.10;;;3.08;;
67278;SDS011;54193;53.746;10.058;2022-12-07T15:05:36;11.53;;;4.60;;
67278;SDS011;54193;53.746;10.058;2022-12-07T15:08:22;8.05;;;3.15;;
67278;SDS011;54193;53.746;10.058;2022-12-07T15:11:11;11.82;;;4.13;;
67278;SDS011;54193;53.746;10.058;2022-12-07T15:13:58;8.07;;;2.80;;
67278;SDS011;54193;53.746;10.058;2022-12-07T15:16:53;9.25;;;3.83;;
67278;SDS011;54193;53.746;10.058;2022-12-07T15:19:39;9.17;;;2.83;;
67278;SDS011;54193;53.746;10.058;2022-12-07T15:22:24;4.72;;;1.70;;
67278;SDS011;54193;53.746;10.058;2022-12-07T15:25:13;6.97;;;1.50;;
67278;SDS011;54193;53.746;10.058;2022-12-07T15:27:59;6.07;;;2.25;;
67278;SDS011;54193;53.746;10.058;2022-12-07T15:30:45;6.70;;;1.90;;
67278;SDS011;54193;53.746;10.058;2022-12-07T15:33:30;4.77;;;2.30;;
67278;SDS011;54193;53.746;10.058;2022-12-07T15:36:20;5.45;;;2.08;;
67278;SDS011;54193;53.746;10.058;2022-12-07T15:39:08;5.95;;;2.40;;
67278;SDS011;54193;53.746;10.058;2022-12-07T15:41:55;4.57;;;1.70;;
67278;SDS011;54193;53.746;10.058;2022-12-07T15:44:41;6.40;;;1.90;;
67278;SDS011;54193;53.746;10.058;2022-12-07T15:47:45;8.43;;;1.93;;
67278;SDS011;54193;53.746;10.058;2022-12-07T15:50:30;15.32;;;2.90;;
67278;SDS011;54193;53.746;10.058;2022-12-07T15:53:16;6.13;;;2.10;;
67278;SDS011;54193;53.746;10.058;2022-12-07T15:56:05;4.55;;;1.63;;
67278;SDS011;54193;53.746;10.058;2022-12-07T15:58:52;9.27;;;3.40;;
67278;SDS011;54193;53.746;10.058;2022-12-07T16:01:37;10.73;;;4.00;;
67278;SDS011;54193;53.746;10.058;2022-12-07T16:04:23;13.98;;;4.35;;
67278;SDS011;54193;53.746;10.058;2022-12-07T16:07:09;7.05;;;2.50;;
67278;SDS011;54193;53.746;10.058;2022-12-07T16:09:56;6.57;;;2.50;;
67278;SDS011;54193;53.746;10.058;2022-12-07T16:12:42;7.82;;;2.75;;
67278;SDS011;54193;53.746;10.058;2022-12-07T16:15:28;5.70;;;2.00;;
67278;SDS011;54193;53.746;10.058;2022-12-07T16:18:13;6.80;;;2.78;;
67278;SDS011;54193;53.746;10.058;2022-12-07T16:20:59;6.03;;;3.10;;
67278;SDS011;54193;53.746;10.058;2022-12-07T16:23:44;4.65;;;2.00;;
67278;SDS011;54193;53.746;10.058;2022-12-07T16:26:30;7.15;;;1.80;;
67278;SDS011;54193;53.746;10.058;2022-12-07T16:29:17;3.77;;;1.33;;
67278;SDS011;54193;53.746;10.058;2022-12-07T16:32:04;6.70;;;2.33;;
67278;SDS011;54193;53.746;10.058;2022-12-07T16:34:50;8.75;;;2.90;;
67278;SDS011;54193;53.746;10.058;2022-12-07T16:37:36;9.25;;;2.30;;
67278;SDS011;54193;53.746;10.058;2022-12-07T16:40:21;6.53;;;2.05;;
67278;SDS011;54193;53.746;10.058;2022-12-07T16:43:07;6.50;;;1.83;;
67278;SDS011;54193;53.746;10.058;2022-12-07T16:45:55;5.80;;;2.20;;
67278;SDS011;54193;53.746;10.058;2022-12-07T16:48:41;8.05;;;2.47;;
67278;SDS011;54193;53.746;10.058;2022-12-07T16:51:27;9.52;;;2.00;;
67278;SDS011;54193;53.746;10.058;2022-12-07T16:54:13;4.68;;;1.63;;
67278;SDS011;54193;53.746;10.058;2022-12-07T16:56:58;7.03;;;1.60;;
67278;SDS011;54193;53.746;10.058;2022-12-07T16:59:44;6.10;;;1.90;;
67278;SDS011;54193;53.746;10.058;2022-12-07T17:02:30;4.28;;;1.52;;
67278;SDS011;54193;53.746;10.058;2022-12-07T17:05:15;4.90;;;1.83;;
67278;SDS011;54193;53.746;10.058;2022-12-07T17:08:01;7.07;;;1.55;;
67278;SDS011;54193;53.746;10.058;2022-12-07T17:10:47;5.40;;;2.17;;
67278;SDS011;54193;53.746;10.058;2022-12-07T17:13:33;18.27;;;4.20;;
67278;SDS011;54193;53.746;10.058;2022-12-07T17:16:37;19.38;;;4.88;;
67278;SDS011;54193;53.746;10.058;2022-12-07T17:19:23;14.43;;;3.45;;
67278;SDS011;54193;53.746;10.058;2022-12-07T17:22:09;17.67;;;5.28;;
67278;SDS011;54193;53.746;10.058;2022-12-07T17:24:57;15.60;;;4.33;;
67278;SDS011;54193;53.746;10.058;2022-12-07T17:27:43;8.45;;;2.60;;
67278;SDS011;54193;53.746;10.058;2022-12-07T17:30:30;9.98;;;2.03;;
67278;SDS011;54193;53.746;10.058;2022-12-07T17:33:16;9.07;;;2.30;;
67278;SDS011;54193;53.746;10.058;2022-12-07T17:36:18;5.85;;;1.92;;
67278;SDS011;54193;53.746;10.058;2022-12-07T17:39:06;7.13;;;1.70;;
67278;SDS011;54193;53.746;10.058;2022-12-07T17:41:54;5.55;;;2.13;;
67278;SDS011;54193;53.746;10.058;2022-12-07T17:44:58;6.38;;;2.08;;
67278;SDS011;54193;53.746;10.058;2022-12-07T17:47:44;5.28;;;2.05;;
67278;SDS011;54193;53.746;10.058;2022-12-07T17:50:30;5.72;;;2.08;;
67278;SDS011;54193;53.746;10.058;2022-12-07T17:53:34;6.10;;;2.70;;
67278;SDS011;54193;53.746;10.058;2022-12-07T17:56:20;8.70;;;2.37;;
67278;SDS011;54193;53.746;10.058;2022-12-07T17:59:06;7.88;;;2.30;;
67278;SDS011;54193;53.746;10.058;2022-12-07T18:01:51;5.50;;;2.30;;
67278;SDS011;54193;53.746;10.058;2022-12-07T18:04:37;6.43;;;2.72;;
67278;SDS011;54193;53.746;10.058;2022-12-07T18:07:24;7.20;;;2.67;;
67278;SDS011;54193;53.746;10.058;2022-12-07T18:10:10;7.00;;;2.80;;